createdAt,value
2023-04-01T00:02:06.850Z,89.64
2023-04-01T00:04:34.229Z,89.08
2023-04-01T00:07:02.770Z,88.10
2023-04-01T00:09:30.479Z,86.92
2023-04-01T00:11:57.762Z,87.23
2023-04-01T00:14:25.033Z,86.53
2023-04-01T00:16:53.496Z,86.66
2023-04-01T00:19:20.991Z,86.59
2023-04-01T00:21:49.083Z,87.29
2023-04-01T00:24:16.358Z,86.62
2023-04-01T00:26:44.981Z,87.10
2023-04-01T00:29:12.380Z,87.39
2023-04-01T00:31:39.741Z,86.43
2023-04-01T00:34:07.039Z,86.78
2023-04-01T00:36:34.329Z,86.12
2023-04-01T00:39:01.690Z,86.30
2023-04-01T00:41:29.094Z,85.85
2023-04-01T00:44:22.645Z,85.28
2023-04-01T00:46:50.323Z,85.63
2023-04-01T00:49:18.683Z,85.28
2023-04-01T00:51:47.106Z,85.37
2023-04-01T00:54:14.879Z,85.51
2023-04-01T00:56:51.039Z,85.07
2023-04-01T00:59:25.972Z,85.70
2023-04-01T01:01:53.375Z,86.31
2023-04-01T01:04:32.231Z,85.92
2023-04-01T01:07:38.697Z,86.71
2023-04-01T01:10:27.964Z,86.43
2023-04-01T01:13:04.321Z,86.62
2023-04-01T01:15:39.175Z,87.67
2023-04-01T01:18:27.726Z,87.67
2023-04-01T01:21:21.931Z,87.65
2023-04-01T01:24:08.117Z,88.77
2023-04-01T01:26:43.748Z,89.37
2023-04-01T01:29:45.254Z,88.92
2023-04-01T01:32:42.006Z,88.97
2023-04-01T01:35:15.519Z,89.45
2023-04-01T01:37:43.061Z,88.24
2023-04-01T01:40:12.658Z,87.72
2023-04-01T01:42:43.032Z,88.07
2023-04-01T01:45:10.468Z,88.85
2023-04-01T01:47:37.885Z,88.22
2023-04-01T01:50:07.420Z,88.26
2023-04-01T01:52:35.010Z,87.36
2023-04-01T01:55:02.923Z,87.59
2023-04-01T01:57:40.384Z,88.07
2023-04-01T02:00:15.442Z,86.45
2023-04-01T02:02:46.249Z,87.62
2023-04-01T02:05:20.062Z,87.23
2023-04-01T02:08:00.160Z,86.37
2023-04-01T02:10:27.776Z,86.14
2023-04-01T02:12:56.765Z,86.22
2023-04-01T02:15:24.142Z,87.62
2023-04-01T02:17:53.174Z,88.78
2023-04-01T02:20:24.043Z,88.95
2023-04-01T02:22:53.032Z,89.24
2023-04-01T02:25:23.970Z,89.36
2023-04-01T02:27:52.165Z,89.67
2023-04-01T02:30:19.619Z,89.10
2023-04-01T02:32:47.604Z,89.19
2023-04-01T02:35:16.213Z,89.19
2023-04-01T02:37:43.726Z,89.99
2023-04-01T02:40:14.516Z,89.86
2023-04-01T02:42:41.871Z,89.54
2023-04-01T02:45:09.774Z,89.57
2023-04-01T02:47:37.240Z,89.03
2023-04-01T02:50:05.232Z,89.43
2023-04-01T02:52:32.500Z,88.79
2023-04-01T02:55:02.224Z,90.10
2023-04-01T02:57:30.614Z,90.57
2023-04-01T02:59:57.968Z,89.97
2023-04-01T03:02:25.404Z,90.18
2023-04-01T03:04:52.891Z,90.38
2023-04-01T03:07:20.248Z,90.22
2023-04-01T03:09:47.612Z,90.39
2023-04-01T03:12:14.970Z,89.77
2023-04-01T03:14:50.683Z,89.74
2023-04-01T03:17:18.292Z,90.42
2023-04-01T03:19:46.138Z,90.19
2023-04-01T03:22:13.769Z,90.31
2023-04-01T03:24:41.100Z,89.69
2023-04-01T03:27:08.537Z,90.58
2023-04-01T03:29:36.186Z,89.38
2023-04-01T03:32:03.515Z,90.18
2023-04-01T03:34:30.962Z,89.58
2023-04-01T03:36:58.540Z,90.21
2023-04-01T03:39:26.303Z,90.12
2023-04-01T03:41:53.633Z,89.45
2023-04-01T03:44:21.401Z,90.08
2023-04-01T03:46:52.015Z,90.28
2023-04-01T03:49:19.273Z,90.40
2023-04-01T03:51:46.758Z,90.18
2023-04-01T03:54:14.323Z,90.59
2023-04-01T03:56:41.674Z,90.08
2023-04-01T03:59:08.996Z,90.04
2023-04-01T04:01:36.226Z,90.88
2023-04-01T04:04:03.802Z,90.96
2023-04-01T04:06:31.109Z,90.37
2023-04-01T04:08:58.400Z,90.75
2023-04-01T04:11:26.964Z,91.18
2023-04-01T04:13:55.560Z,90.81
2023-04-01T04:16:23.960Z,91.43
2023-04-01T04:18:57.491Z,91.26
2023-04-01T04:21:24.834Z,90.11
2023-04-01T04:23:52.564Z,90.73
2023-04-01T04:26:20.853Z,90.86
2023-04-01T04:28:55.210Z,91.61
2023-04-01T04:31:23.449Z,91.31
2023-04-01T04:33:52.430Z,91.17
2023-04-01T04:36:20.002Z,91.58
2023-04-01T04:38:49.251Z,91.72
2023-04-01T04:41:18.805Z,91.62
2023-04-01T04:43:51.111Z,91.42
2023-04-01T04:46:18.483Z,91.17
2023-04-01T04:48:46.681Z,90.77
2023-04-01T04:51:17.998Z,89.82
2023-04-01T04:53:45.507Z,89.87
2023-04-01T04:56:12.989Z,89.19
2023-04-01T04:58:48.526Z,89.04
2023-04-01T05:01:19.613Z,88.57
2023-04-01T05:03:47.179Z,89.00
2023-04-01T05:06:15.783Z,88.93
2023-04-01T05:08:43.849Z,90.03
2023-04-01T05:11:16.720Z,89.43
2023-04-01T05:13:44.716Z,88.34
2023-04-01T05:16:14.305Z,88.26
2023-04-01T05:18:41.737Z,86.49
2023-04-01T05:21:10.156Z,85.57
2023-04-01T05:23:37.525Z,85.86
2023-04-01T05:26:12.781Z,86.04
2023-04-01T05:28:40.514Z,86.20
2023-04-01T05:31:08.138Z,86.71
2023-04-01T05:33:38.731Z,86.75
2023-04-01T05:36:08.101Z,86.43
2023-04-01T05:38:35.527Z,85.92
2023-04-01T05:41:03.139Z,85.24
2023-04-01T05:43:31.654Z,84.93
2023-04-01T05:46:05.655Z,83.96
2023-04-01T05:48:40.429Z,84.56
2023-04-01T05:51:07.759Z,84.16
2023-04-01T05:53:35.224Z,83.88
2023-04-01T05:56:04.029Z,83.33
2023-04-01T05:58:35.372Z,82.36
2023-04-01T06:01:11.292Z,81.85
2023-04-01T06:03:45.902Z,80.37
2023-04-01T06:06:21.073Z,78.92
2023-04-01T06:08:48.437Z,78.73
2023-04-01T06:11:44.982Z,79.93
2023-04-01T06:14:34.034Z,79.89
2023-04-01T06:17:17.514Z,78.51
2023-04-01T06:20:13.618Z,77.96
2023-04-01T06:23:18.460Z,77.72
2023-04-01T06:25:52.082Z,76.70
2023-04-01T06:28:46.515Z,75.53
2023-04-01T06:31:41.662Z,75.77
2023-04-01T06:34:24.076Z,75.30
2023-04-01T06:37:38.874Z,75.90
2023-04-01T06:40:21.600Z,76.48
2023-04-01T06:42:57.675Z,76.17
2023-04-01T06:46:06.085Z,75.89
2023-04-01T06:49:17.223Z,76.36
2023-04-01T06:52:32.176Z,76.09
2023-04-01T06:56:01.495Z,75.64
2023-04-01T06:58:55.069Z,75.66
2023-04-01T07:01:25.595Z,74.85
2023-04-01T07:03:57.029Z,73.87
2023-04-01T07:06:27.080Z,72.78
2023-04-01T07:08:56.453Z,72.20
2023-04-01T07:11:32.636Z,71.06
2023-04-01T07:14:22.549Z,70.04
2023-04-01T07:16:56.328Z,66.80
2023-04-01T07:19:29.582Z,67.49
2023-04-01T07:22:32.714Z,65.00
2023-04-01T07:25:21.883Z,63.01
2023-04-01T07:28:07.405Z,63.72
2023-04-01T07:31:05.944Z,62.93
2023-04-01T07:33:40.937Z,61.10
2023-04-01T07:36:08.377Z,63.25
2023-04-01T07:39:07.291Z,68.92
2023-04-01T07:42:06.650Z,64.61
2023-04-01T07:44:42.771Z,67.03
2023-04-01T07:47:35.574Z,66.10
2023-04-01T07:50:32.769Z,63.09
2023-04-01T07:53:31.338Z,63.12
2023-04-01T07:56:12.737Z,57.72
2023-04-01T07:58:45.981Z,60.48
2023-04-01T08:01:22.614Z,57.76
2023-04-01T08:04:11.109Z,60.19
2023-04-01T08:06:41.229Z,56.76
2023-04-01T08:09:52.933Z,56.56
2023-04-01T08:12:43.920Z,56.09
2023-04-01T08:15:43.704Z,56.38
2023-04-01T08:18:47.812Z,64.42
2023-04-01T08:21:22.811Z,65.40
2023-04-01T08:23:52.676Z,65.54
2023-04-01T08:26:50.848Z,64.57
2023-04-01T08:29:31.413Z,64.56
2023-04-01T08:32:09.858Z,62.59
2023-04-01T08:34:41.681Z,62.37
2023-04-01T08:37:18.705Z,62.91
2023-04-01T08:40:26.646Z,62.05
2023-04-01T08:43:01.866Z,61.01
2023-04-01T08:46:03.872Z,60.59
2023-04-01T08:48:52.903Z,58.55
2023-04-01T08:51:51.775Z,60.62
2023-04-01T08:54:53.887Z,60.08
2023-04-01T08:57:54.715Z,59.70
2023-04-01T09:01:15.103Z,58.27
2023-04-01T09:03:58.815Z,59.35
2023-04-01T09:06:58.561Z,58.87
2023-04-01T09:10:02.667Z,57.57
2023-04-01T09:12:59.072Z,58.54
2023-04-01T09:15:35.116Z,57.25
2023-04-01T09:18:15.125Z,56.90
2023-04-01T09:20:52.220Z,57.12
2023-04-01T09:23:38.834Z,58.43
2023-04-01T09:26:16.567Z,57.79
2023-04-01T09:28:46.226Z,57.33
2023-04-01T09:31:19.586Z,57.04
2023-04-01T09:34:20.804Z,56.47
2023-04-01T09:37:25.572Z,55.87
2023-04-01T09:40:40.140Z,54.63
2023-04-01T09:43:22.089Z,54.85
2023-04-01T09:45:55.449Z,54.05
2023-04-01T09:48:52.334Z,54.46
2023-04-01T09:51:32.442Z,53.66
2023-04-01T09:54:15.628Z,53.81
2023-04-01T09:57:08.119Z,53.23
2023-04-01T10:00:11.612Z,52.49
2023-04-01T10:03:08.525Z,52.29
2023-04-01T10:06:10.369Z,51.96
2023-04-01T10:08:59.390Z,51.10
2023-04-01T10:11:51.625Z,50.44
2023-04-01T10:14:58.134Z,50.69
2023-04-01T10:17:43.384Z,49.51
2023-04-01T10:20:22.219Z,50.50
2023-04-01T10:23:22.147Z,51.55
2023-04-01T10:26:14.628Z,49.90
2023-04-01T10:29:20.131Z,49.67
2023-04-01T10:32:11.881Z,49.61
2023-04-01T10:35:01.973Z,49.81
2023-04-01T10:37:47.558Z,50.43
2023-04-01T10:40:14.755Z,51.30
2023-04-01T10:43:29.849Z,50.83
2023-04-01T10:46:41.806Z,50.31
2023-04-01T10:49:24.538Z,50.24
2023-04-01T10:51:56.471Z,48.94
2023-04-01T10:55:11.925Z,49.17
2023-04-01T10:58:20.883Z,47.22
2023-04-01T11:01:28.534Z,48.09
2023-04-01T11:05:00.074Z,47.18
2023-04-01T11:08:20.424Z,45.99
2023-04-01T11:11:18.579Z,44.86
2023-04-01T11:13:56.062Z,43.90
2023-04-01T11:16:41.593Z,43.75
2023-04-01T11:19:38.196Z,44.05
2023-04-01T11:22:59.717Z,43.67
2023-04-01T11:25:48.767Z,42.71
2023-04-01T11:28:50.663Z,42.81
2023-04-01T11:31:25.115Z,41.80
2023-04-01T11:34:21.963Z,42.34
2023-04-01T11:36:49.309Z,42.18
2023-04-01T11:39:34.536Z,45.56
2023-04-01T11:42:22.304Z,46.71
2023-04-01T11:45:45.546Z,46.49
2023-04-01T11:48:31.296Z,44.24
2023-04-01T11:51:01.493Z,44.89
2023-04-01T11:53:56.215Z,43.52
2023-04-01T11:56:39.150Z,42.77
2023-04-01T11:59:15.946Z,42.67
2023-04-01T12:02:08.102Z,43.60
2023-04-01T12:04:55.482Z,42.80
2023-04-01T12:07:30.923Z,43.03
2023-04-01T12:10:19.652Z,43.74
2023-04-01T12:13:24.089Z,43.85
2023-04-01T12:16:15.614Z,43.60
2023-04-01T12:18:51.894Z,43.30
2023-04-01T12:21:48.636Z,44.43
2023-04-01T12:24:36.193Z,45.19
2023-04-01T12:27:24.608Z,46.13
2023-04-01T12:30:22.899Z,46.85
2023-04-01T12:33:32.022Z,46.46
2023-04-01T12:36:17.411Z,47.41
2023-04-01T12:38:48.854Z,49.20
2023-04-01T12:41:22.692Z,49.29
2023-04-01T12:44:10.908Z,48.67
2023-04-01T12:46:59.645Z,48.99
2023-04-01T12:49:56.072Z,48.66
2023-04-01T12:52:26.021Z,48.68
2023-04-01T12:55:04.213Z,48.76
2023-04-01T12:58:02.603Z,48.38
2023-04-01T13:01:01.037Z,47.18
2023-04-01T13:03:43.394Z,47.14
2023-04-01T13:06:27.476Z,47.50
2023-04-01T13:09:08.842Z,47.62
2023-04-01T13:11:48.461Z,46.65
2023-04-01T13:14:31.339Z,46.68
2023-04-01T13:17:17.176Z,47.00
2023-04-01T13:20:04.299Z,47.95
2023-04-01T13:22:39.154Z,47.26
2023-04-01T13:25:37.401Z,48.75
2023-04-01T13:28:16.640Z,49.12
2023-04-01T13:31:20.441Z,50.20
2023-04-01T13:33:56.715Z,51.32
2023-04-01T13:36:45.554Z,52.09
2023-04-01T13:39:14.302Z,54.24
2023-04-01T13:41:44.492Z,60.06
2023-04-01T13:44:19.224Z,63.76
2023-04-01T13:46:59.760Z,60.83
2023-04-01T13:49:33.193Z,58.19
2023-04-01T13:52:25.535Z,59.62
2023-04-01T13:55:24.819Z,61.17
2023-04-01T13:57:58.767Z,62.51
2023-04-01T14:00:53.920Z,63.50
2023-04-01T14:03:24.034Z,60.32
2023-04-01T14:06:14.186Z,62.71
2023-04-01T14:08:45.495Z,61.84
2023-04-01T14:11:37.261Z,62.45
2023-04-01T14:14:28.120Z,62.85
2023-04-01T14:17:22.525Z,64.26
2023-04-01T14:20:12.200Z,64.20
2023-04-01T14:22:51.950Z,62.33
2023-04-01T14:25:31.200Z,60.85
2023-04-01T14:28:08.697Z,60.68
2023-04-01T14:30:52.880Z,59.00
2023-04-01T14:33:44.908Z,57.60
2023-04-01T14:36:39.825Z,55.51
2023-04-01T14:39:45.555Z,54.57
2023-04-01T14:42:33.755Z,54.84
2023-04-01T14:45:22.757Z,53.71
2023-04-01T14:47:59.731Z,53.67
2023-04-01T14:50:31.322Z,58.17
2023-04-01T14:53:09.800Z,60.08
2023-04-01T14:55:39.929Z,60.78
2023-04-01T14:58:14.700Z,57.63
2023-04-01T15:00:55.068Z,54.63
2023-04-01T15:03:28.030Z,59.00
2023-04-01T15:06:16.557Z,60.73
2023-04-01T15:09:02.498Z,59.95
2023-04-01T15:11:49.762Z,60.10
2023-04-01T15:14:29.107Z,60.18
2023-04-01T15:17:00.340Z,61.81
2023-04-01T15:19:30.091Z,61.80
2023-04-01T15:22:21.878Z,62.33
2023-04-01T15:25:03.874Z,62.34
2023-04-01T15:27:51.830Z,61.60
2023-04-01T15:30:36.718Z,63.80
2023-04-01T15:33:08.207Z,63.77
2023-04-01T15:35:47.886Z,63.69
2023-04-01T15:38:24.181Z,64.65
2023-04-01T15:41:23.816Z,65.08
2023-04-01T15:43:53.266Z,64.87
2023-04-01T15:46:23.275Z,64.23
2023-04-01T15:48:56.697Z,64.72
2023-04-01T15:51:38.901Z,64.76
2023-04-01T15:54:10.565Z,64.46
2023-04-01T15:56:42.274Z,64.70
2023-04-01T15:59:54.486Z,65.32
2023-04-01T16:02:41.453Z,65.93
2023-04-01T16:05:29.060Z,65.50
2023-04-01T16:08:31.928Z,66.04
2023-04-01T16:11:19.091Z,65.87
2023-04-01T16:14:05.117Z,66.16
2023-04-01T16:16:41.216Z,65.97
2023-04-01T16:19:34.033Z,66.82
2023-04-01T16:22:19.556Z,66.57
2023-04-01T16:24:48.007Z,66.45
2023-04-01T16:27:35.300Z,66.16
2023-04-01T16:30:21.294Z,66.37
2023-04-01T16:33:14.270Z,68.11
2023-04-01T16:35:52.108Z,68.30
2023-04-01T16:38:27.805Z,67.20
2023-04-01T16:41:23.113Z,67.30
2023-04-01T16:43:56.847Z,65.98
2023-04-01T16:46:41.745Z,65.69
2023-04-01T16:49:11.945Z,66.22
2023-04-01T16:51:49.751Z,69.01
2023-04-01T16:54:19.945Z,69.37
2023-04-01T16:56:55.417Z,68.84
2023-04-01T16:59:37.472Z,68.70
2023-04-01T17:02:09.879Z,68.60
2023-04-01T17:04:46.697Z,67.33
2023-04-01T17:07:51.163Z,67.92
2023-04-01T17:10:37.403Z,68.61
2023-04-01T17:13:20.639Z,70.76
2023-04-01T17:16:08.719Z,71.52
2023-04-01T17:18:41.952Z,71.94
2023-04-01T17:21:29.671Z,71.15
2023-04-01T17:24:22.580Z,72.25
2023-04-01T17:26:55.176Z,72.24
2023-04-01T17:29:41.279Z,71.78
2023-04-01T17:32:32.621Z,72.37
2023-04-01T17:35:15.426Z,72.08
2023-04-01T17:37:42.704Z,72.29
2023-04-01T17:40:42.502Z,72.33
2023-04-01T17:43:15.494Z,72.23
2023-04-01T17:45:56.880Z,73.04
2023-04-01T17:48:45.572Z,73.00
2023-04-01T17:51:50.726Z,71.59
2023-04-01T17:54:33.271Z,72.23
2023-04-01T17:57:06.034Z,73.38
2023-04-01T17:59:53.798Z,73.81
2023-04-01T18:02:36.359Z,73.86
2023-04-01T18:05:32.874Z,73.78
2023-04-01T18:08:36.842Z,74.20
2023-04-01T18:11:07.481Z,73.63
2023-04-01T18:14:14.484Z,73.06
2023-04-01T18:16:47.584Z,70.25
2023-04-01T18:19:52.384Z,67.28
2023-04-01T18:22:45.637Z,64.12
2023-04-01T18:25:18.203Z,61.93
2023-04-01T18:28:30.612Z,60.38
2023-04-01T18:31:04.024Z,59.01
2023-04-01T18:33:44.593Z,58.19
2023-04-01T18:36:20.181Z,57.95
2023-04-01T18:38:57.201Z,57.50
2023-04-01T18:41:36.445Z,57.45
2023-04-01T18:44:28.451Z,57.78
2023-04-01T18:47:01.568Z,57.13
2023-04-01T18:49:58.233Z,56.68
2023-04-01T18:52:25.458Z,56.61
2023-04-01T18:55:01.951Z,55.96
2023-04-01T18:57:51.337Z,55.72
2023-04-01T19:00:21.350Z,55.69
2023-04-01T19:03:03.867Z,55.79
2023-04-01T19:05:35.326Z,55.53
2023-04-01T19:08:32.213Z,55.45
2023-04-01T19:11:18.133Z,55.47
2023-04-01T19:13:57.404Z,54.64
2023-04-01T19:16:31.484Z,54.55
2023-04-01T19:19:23.086Z,54.65
2023-04-01T19:21:54.028Z,54.57
2023-04-01T19:24:26.881Z,55.02
2023-04-01T19:27:07.164Z,55.27
2023-04-01T19:29:44.273Z,54.89
2023-04-01T19:32:17.107Z,55.30
2023-04-01T19:35:07.591Z,55.34
2023-04-01T19:37:44.978Z,55.43
2023-04-01T19:40:25.981Z,55.61
2023-04-01T19:42:59.929Z,55.77
2023-04-01T19:45:33.301Z,55.48
2023-04-01T19:48:07.064Z,55.82
2023-04-01T19:51:07.391Z,55.46
2023-04-01T19:53:40.708Z,55.58
2023-04-01T19:56:19.161Z,55.99
2023-04-01T19:58:51.720Z,56.03
2023-04-01T20:01:45.262Z,55.72
2023-04-01T20:04:35.411Z,56.01
2023-04-01T20:07:10.612Z,56.21
2023-04-01T20:10:04.193Z,56.41
2023-04-01T20:12:59.065Z,56.68
2023-04-01T20:15:45.901Z,55.78
2023-04-01T20:18:24.910Z,56.26
2023-04-01T20:21:15.502Z,56.67
2023-04-01T20:23:51.658Z,56.73
2023-04-01T20:26:39.141Z,56.68
2023-04-01T20:29:22.976Z,57.33
2023-04-01T20:32:29.117Z,57.40
2023-04-01T20:35:21.335Z,57.32
2023-04-01T20:38:07.290Z,57.16
2023-04-01T20:40:39.883Z,57.53
2023-04-01T20:43:31.833Z,57.51
2023-04-01T20:46:20.171Z,57.68
2023-04-01T20:49:08.535Z,58.51
2023-04-01T20:51:44.474Z,58.61
2023-04-01T20:54:34.772Z,59.04
2023-04-01T20:57:11.299Z,59.06
2023-04-01T20:59:57.745Z,58.91
2023-04-01T21:02:34.019Z,59.17
2023-04-01T21:05:11.349Z,59.34
2023-04-01T21:07:45.859Z,59.67
2023-04-01T21:10:42.668Z,60.03
2023-04-01T21:13:31.891Z,60.25
2023-04-01T21:16:35.243Z,59.79
2023-04-01T21:19:14.624Z,60.19
2023-04-01T21:21:52.217Z,60.27
2023-04-01T21:24:57.805Z,60.68
2023-04-01T21:27:27.723Z,60.72
2023-04-01T21:30:31.941Z,61.28
2023-04-01T21:33:15.201Z,61.71
2023-04-01T21:36:01.187Z,61.94
2023-04-01T21:38:41.191Z,62.75
2023-04-01T21:41:11.397Z,63.15
2023-04-01T21:43:57.422Z,62.89
2023-04-01T21:46:49.529Z,62.78
2023-04-01T21:49:22.783Z,62.82
2023-04-01T21:52:08.279Z,62.90
2023-04-01T21:54:57.388Z,62.66
2023-04-01T21:57:49.490Z,62.70
2023-04-01T22:00:35.147Z,62.91
2023-04-01T22:03:43.506Z,62.61
2023-04-01T22:06:31.061Z,62.26
2023-04-01T22:09:11.159Z,62.56
2023-04-01T22:11:50.664Z,62.47
2023-04-01T22:14:44.681Z,62.70
2023-04-01T22:17:24.128Z,62.85
2023-04-01T22:20:11.003Z,62.50
2023-04-01T22:23:13.813Z,62.95
2023-04-01T22:26:00.306Z,62.85
2023-04-01T22:28:36.230Z,63.41
2023-04-01T22:31:04.198Z,63.16
2023-04-01T22:34:22.810Z,63.32
2023-04-01T22:37:08.171Z,64.78
2023-04-01T22:39:50.671Z,64.09
2023-04-01T22:42:33.190Z,64.12
2023-04-01T22:45:07.100Z,64.92
2023-04-01T22:47:50.764Z,65.53
2023-04-01T22:50:25.468Z,64.93
2023-04-01T22:53:00.506Z,66.11
2023-04-01T22:55:31.544Z,66.67
2023-04-01T22:58:16.085Z,66.38
2023-04-01T23:00:46.556Z,66.24
2023-04-01T23:03:30.110Z,68.36
2023-04-01T23:06:01.728Z,68.99
2023-04-01T23:08:55.549Z,69.82
2023-04-01T23:11:46.091Z,69.83
2023-04-01T23:14:24.358Z,69.66
2023-04-01T23:17:03.987Z,69.01
2023-04-01T23:19:53.251Z,70.69
2023-04-01T23:22:28.726Z,70.86
2023-04-01T23:25:17.479Z,71.30
2023-04-01T23:28:10.600Z,71.41
2023-04-01T23:30:40.948Z,71.87
2023-04-01T23:33:23.383Z,72.35
2023-04-01T23:35:57.754Z,71.91
2023-04-01T23:38:26.425Z,71.64
2023-04-01T23:40:55.061Z,71.04
2023-04-01T23:43:32.174Z,70.03
2023-04-01T23:46:01.588Z,68.94
2023-04-01T23:48:39.658Z,68.50
2023-04-01T23:51:27.707Z,68.19
2023-04-01T23:54:16.275Z,69.65
2023-04-01T23:56:49.006Z,67.25
2023-04-01T23:59:38.487Z,67.57
